RJOO/ITM METAR and TAF weather

Enter ICAO airport designator
Station Type Date Time Source
RJOO METAR 2022/01/29 10:00 UTC NOAA

RJOO 291000Z 34005KT 9999 FEW030 BKN050 07/M00 Q1014


Station Type Date Time Source
RJOO Decoded METAR 2022/01/29 10:00 UTC NOAA

Osaka International Airport, Japan (RJOO) 34-47N 135-27E 15M
Jan 29, 2022 - 05:00 AM EST / 2022.01.29 1000 UTC
Wind: from the NNW (340 degrees) at 6 MPH (5 KT):0
Visibility: greater than 7 mile(s):0
Sky conditions: mostly cloudy
Temperature: 44 F (7 C)
Dew Point: 32 F (0 C)
Relative Humidity: 60%
Pressure (altimeter): 29.94 in. Hg (1014 hPa)
ob: RJOO 291000Z 34005KT 9999 FEW030 BKN050 07/M00 Q1014
cycle: 10

Station Type Date Time Source
RJOO TAF 2022/01/29 06:31 UTC NOAA

TAF RJOO 290505Z 2906/3012 22006KT 9999 FEW030 SCT045
BECMG 2908/2910 33008KT

Example: see airport list